sensor_id;sensor_type;location;lat;lon;timestamp;temperature;humidity
15131;DHT22;7666;50.920;4.628;2023-07-09T00:00:18;22.60;99.90
15131;DHT22;7666;50.920;4.628;2023-07-09T00:03:04;22.60;99.90
15131;DHT22;7666;50.920;4.628;2023-07-09T00:05:50;22.40;99.90
15131;DHT22;7666;50.920;4.628;2023-07-09T00:08:39;22.30;99.90
15131;DHT22;7666;50.920;4.628;2023-07-09T00:11:27;22.30;99.90
15131;DHT22;7666;50.920;4.628;2023-07-09T00:14:15;22.20;99.90
15131;DHT22;7666;50.920;4.628;2023-07-09T00:17:02;22.00;99.90
15131;DHT22;7666;50.920;4.628;2023-07-09T00:19:48;22.00;99.90
15131;DHT22;7666;50.920;4.628;2023-07-09T00:22:33;22.00;99.90
15131;DHT22;7666;50.920;4.628;2023-07-09T00:25:20;22.10;99.90
15131;DHT22;7666;50.920;4.628;2023-07-09T00:28:12;22.10;99.90
15131;DHT22;7666;50.920;4.628;2023-07-09T00:30:58;22.10;99.90
15131;DHT22;7666;50.920;4.628;2023-07-09T00:33:45;21.90;99.90
15131;DHT22;7666;50.920;4.628;2023-07-09T00:36:32;21.80;99.90
15131;DHT22;7666;50.920;4.628;2023-07-09T00:39:22;21.80;99.90
15131;DHT22;7666;50.920;4.628;2023-07-09T00:42:20;21.80;99.90
15131;DHT22;7666;50.920;4.628;2023-07-09T00:45:21;21.80;99.90
15131;DHT22;7666;50.920;4.628;2023-07-09T00:48:13;21.80;99.90
15131;DHT22;7666;50.920;4.628;2023-07-09T00:51:00;21.80;99.90
15131;DHT22;7666;50.920;4.628;2023-07-09T00:53:50;21.80;99.90
15131;DHT22;7666;50.920;4.628;2023-07-09T00:56:40;21.80;99.90
15131;DHT22;7666;50.920;4.628;2023-07-09T00:59:29;21.80;99.90
15131;DHT22;7666;50.920;4.628;2023-07-09T01:02:17;21.80;99.90
15131;DHT22;7666;50.920;4.628;2023-07-09T01:05:09;21.80;99.90
15131;DHT22;7666;50.920;4.628;2023-07-09T01:07:56;21.80;99.90
15131;DHT22;7666;50.920;4.628;2023-07-09T01:10:43;21.80;99.90
15131;DHT22;7666;50.920;4.628;2023-07-09T01:13:30;21.80;99.90
15131;DHT22;7666;50.920;4.628;2023-07-09T01:16:19;21.80;99.90
15131;DHT22;7666;50.920;4.628;2023-07-09T01:19:07;21.70;99.90
15131;DHT22;7666;50.920;4.628;2023-07-09T01:21:55;21.70;99.90
15131;DHT22;7666;50.920;4.628;2023-07-09T01:27:45;21.80;99.90
15131;DHT22;7666;50.920;4.628;2023-07-09T01:30:39;21.70;99.90
15131;DHT22;7666;50.920;4.628;2023-07-09T01:33:25;21.70;99.90
15131;DHT22;7666;50.920;4.628;2023-07-09T01:36:18;21.60;99.90
15131;DHT22;7666;50.920;4.628;2023-07-09T01:39:09;21.50;99.90
15131;DHT22;7666;50.920;4.628;2023-07-09T01:41:55;21.50;99.90
15131;DHT22;7666;50.920;4.628;2023-07-09T01:44:41;21.40;99.90
15131;DHT22;7666;50.920;4.628;2023-07-09T01:47:27;21.40;99.90
15131;DHT22;7666;50.920;4.628;2023-07-09T01:50:13;21.30;99.90
15131;DHT22;7666;50.920;4.628;2023-07-09T01:53:01;21.30;99.90
15131;DHT22;7666;50.920;4.628;2023-07-09T01:55:47;21.30;99.90
15131;DHT22;7666;50.920;4.628;2023-07-09T01:58:34;21.30;99.90
15131;DHT22;7666;50.920;4.628;2023-07-09T02:01:20;21.30;99.90
15131;DHT22;7666;50.920;4.628;2023-07-09T02:04:05;21.30;99.90
15131;DHT22;7666;50.920;4.628;2023-07-09T02:06:51;21.20;99.90
15131;DHT22;7666;50.920;4.628;2023-07-09T02:09:37;21.00;99.90
15131;DHT22;7666;50.920;4.628;2023-07-09T02:12:23;20.80;99.90
15131;DHT22;7666;50.920;4.628;2023-07-09T02:15:10;20.60;99.90
15131;DHT22;7666;50.920;4.628;2023-07-09T02:17:56;20.60;99.90
15131;DHT22;7666;50.920;4.628;2023-07-09T02:20:47;20.50;99.90
15131;DHT22;7666;50.920;4.628;2023-07-09T02:23:33;20.50;99.90
15131;DHT22;7666;50.920;4.628;2023-07-09T02:26:19;20.60;99.90
15131;DHT22;7666;50.920;4.628;2023-07-09T02:29:05;20.70;99.90
15131;DHT22;7666;50.920;4.628;2023-07-09T02:31:52;20.60;99.90
15131;DHT22;7666;50.920;4.628;2023-07-09T02:34:38;20.60;99.90
15131;DHT22;7666;50.920;4.628;2023-07-09T02:37:26;20.70;99.90
15131;DHT22;7666;50.920;4.628;2023-07-09T02:40:12;20.80;99.90
15131;DHT22;7666;50.920;4.628;2023-07-09T02:42:58;20.80;99.90
15131;DHT22;7666;50.920;4.628;2023-07-09T02:45:44;20.80;99.90
15131;DHT22;7666;50.920;4.628;2023-07-09T02:48:30;20.80;99.90
15131;DHT22;7666;50.920;4.628;2023-07-09T02:51:16;20.80;99.90
15131;DHT22;7666;50.920;4.628;2023-07-09T02:54:03;20.70;99.90
15131;DHT22;7666;50.920;4.628;2023-07-09T02:56:49;20.80;99.90
15131;DHT22;7666;50.920;4.628;2023-07-09T02:59:35;20.80;99.90
15131;DHT22;7666;50.920;4.628;2023-07-09T03:02:21;20.90;99.90
15131;DHT22;7666;50.920;4.628;2023-07-09T03:05:07;21.10;99.90
15131;DHT22;7666;50.920;4.628;2023-07-09T03:07:56;21.20;99.90
15131;DHT22;7666;50.920;4.628;2023-07-09T03:10:42;21.30;99.90
15131;DHT22;7666;50.920;4.628;2023-07-09T03:13:28;21.30;99.90
15131;DHT22;7666;50.920;4.628;2023-07-09T03:16:14;21.30;99.90
15131;DHT22;7666;50.920;4.628;2023-07-09T03:19:01;21.40;99.90
15131;DHT22;7666;50.920;4.628;2023-07-09T03:21:49;21.40;99.90
15131;DHT22;7666;50.920;4.628;2023-07-09T03:24:34;21.40;99.90
15131;DHT22;7666;50.920;4.628;2023-07-09T03:27:20;21.40;99.90
15131;DHT22;7666;50.920;4.628;2023-07-09T03:30:07;21.30;99.90
15131;DHT22;7666;50.920;4.628;2023-07-09T03:32:53;21.30;99.90
15131;DHT22;7666;50.920;4.628;2023-07-09T03:35:39;21.30;99.90
15131;DHT22;7666;50.920;4.628;2023-07-09T03:38:25;21.40;99.90
15131;DHT22;7666;50.920;4.628;2023-07-09T03:41:11;21.30;99.90
15131;DHT22;7666;50.920;4.628;2023-07-09T03:43:57;21.30;99.90
15131;DHT22;7666;50.920;4.628;2023-07-09T03:46:43;21.40;99.90
15131;DHT22;7666;50.920;4.628;2023-07-09T03:49:29;21.50;99.90
15131;DHT22;7666;50.920;4.628;2023-07-09T03:52:15;21.50;99.90
15131;DHT22;7666;50.920;4.628;2023-07-09T03:55:02;21.50;99.90
15131;DHT22;7666;50.920;4.628;2023-07-09T03:57:49;21.60;99.90
15131;DHT22;7666;50.920;4.628;2023-07-09T04:00:35;21.60;99.90
15131;DHT22;7666;50.920;4.628;2023-07-09T04:03:22;21.60;99.90
15131;DHT22;7666;50.920;4.628;2023-07-09T04:06:08;21.60;99.90
15131;DHT22;7666;50.920;4.628;2023-07-09T04:08:54;21.70;99.90
15131;DHT22;7666;50.920;4.628;2023-07-09T04:11:40;21.70;99.90
15131;DHT22;7666;50.920;4.628;2023-07-09T04:14:26;21.80;99.90
15131;DHT22;7666;50.920;4.628;2023-07-09T04:17:12;21.90;99.90
15131;DHT22;7666;50.920;4.628;2023-07-09T04:19:58;21.90;99.90
15131;DHT22;7666;50.920;4.628;2023-07-09T04:22:44;21.90;99.90
15131;DHT22;7666;50.920;4.628;2023-07-09T04:25:30;21.90;99.90
15131;DHT22;7666;50.920;4.628;2023-07-09T04:28:16;22.00;99.90
15131;DHT22;7666;50.920;4.628;2023-07-09T04:31:02;22.10;99.90
15131;DHT22;7666;50.920;4.628;2023-07-09T04:33:48;22.10;99.90
15131;DHT22;7666;50.920;4.628;2023-07-09T04:36:34;22.10;99.90
15131;DHT22;7666;50.920;4.628;2023-07-09T04:39:21;21.90;99.90
15131;DHT22;7666;50.920;4.628;2023-07-09T04:42:14;21.70;99.90
15131;DHT22;7666;50.920;4.628;2023-07-09T04:45:00;21.50;99.90
15131;DHT22;7666;50.920;4.628;2023-07-09T04:47:46;21.50;99.90
15131;DHT22;7666;50.920;4.628;2023-07-09T04:50:33;21.60;99.90
15131;DHT22;7666;50.920;4.628;2023-07-09T04:53:19;21.70;99.90
15131;DHT22;7666;50.920;4.628;2023-07-09T04:56:05;21.70;99.90
15131;DHT22;7666;50.920;4.628;2023-07-09T04:58:51;21.80;99.90
15131;DHT22;7666;50.920;4.628;2023-07-09T05:01:37;22.00;99.90
15131;DHT22;7666;50.920;4.628;2023-07-09T05:04:23;22.20;99.90
15131;DHT22;7666;50.920;4.628;2023-07-09T05:07:09;22.30;99.90
15131;DHT22;7666;50.920;4.628;2023-07-09T05:09:55;22.60;99.90
15131;DHT22;7666;50.920;4.628;2023-07-09T05:12:52;23.00;99.90
15131;DHT22;7666;50.920;4.628;2023-07-09T05:15:45;23.60;99.90
15131;DHT22;7666;50.920;4.628;2023-07-09T05:18:31;24.20;99.90
15131;DHT22;7666;50.920;4.628;2023-07-09T05:21:17;24.80;99.90
15131;DHT22;7666;50.920;4.628;2023-07-09T05:24:04;25.60;99.90
15131;DHT22;7666;50.920;4.628;2023-07-09T05:26:50;26.20;99.90
15131;DHT22;7666;50.920;4.628;2023-07-09T05:29:36;26.90;99.90
15131;DHT22;7666;50.920;4.628;2023-07-09T05:32:22;27.40;99.90
15131;DHT22;7666;50.920;4.628;2023-07-09T05:35:08;27.50;99.90
15131;DHT22;7666;50.920;4.628;2023-07-09T05:37:55;28.00;99.90
15131;DHT22;7666;50.920;4.628;2023-07-09T05:40:42;28.50;99.90
15131;DHT22;7666;50.920;4.628;2023-07-09T05:43:28;29.10;99.90
15131;DHT22;7666;50.920;4.628;2023-07-09T05:46:15;29.50;99.90
15131;DHT22;7666;50.920;4.628;2023-07-09T05:49:01;30.10;99.90
15131;DHT22;7666;50.920;4.628;2023-07-09T05:51:46;30.70;99.90
15131;DHT22;7666;50.920;4.628;2023-07-09T05:54:33;31.00;99.90
15131;DHT22;7666;50.920;4.628;2023-07-09T05:57:19;30.80;99.90
15131;DHT22;7666;50.920;4.628;2023-07-09T06:00:05;31.00;99.90
15131;DHT22;7666;50.920;4.628;2023-07-09T06:02:53;31.40;99.90
15131;DHT22;7666;50.920;4.628;2023-07-09T06:05:41;31.50;99.90
15131;DHT22;7666;50.920;4.628;2023-07-09T06:08:27;31.50;99.90
15131;DHT22;7666;50.920;4.628;2023-07-09T06:11:13;31.60;99.90
15131;DHT22;7666;50.920;4.628;2023-07-09T06:13:59;31.70;99.90
15131;DHT22;7666;50.920;4.628;2023-07-09T06:16:45;32.00;99.90
15131;DHT22;7666;50.920;4.628;2023-07-09T06:19:31;32.00;99.90
15131;DHT22;7666;50.920;4.628;2023-07-09T06:22:17;31.90;99.90
15131;DHT22;7666;50.920;4.628;2023-07-09T06:25:03;32.10;99.90
15131;DHT22;7666;50.920;4.628;2023-07-09T06:27:49;32.30;99.90
15131;DHT22;7666;50.920;4.628;2023-07-09T06:30:36;32.50;99.90
15131;DHT22;7666;50.920;4.628;2023-07-09T06:33:23;32.70;99.90
15131;DHT22;7666;50.920;4.628;2023-07-09T06:36:09;33.20;99.90
15131;DHT22;7666;50.920;4.628;2023-07-09T06:38:55;33.40;99.90
15131;DHT22;7666;50.920;4.628;2023-07-09T06:41:41;33.60;99.90
15131;DHT22;7666;50.920;4.628;2023-07-09T06:44:27;33.90;99.90
15131;DHT22;7666;50.920;4.628;2023-07-09T06:47:13;33.90;99.90
15131;DHT22;7666;50.920;4.628;2023-07-09T06:49:59;34.10;99.90
15131;DHT22;7666;50.920;4.628;2023-07-09T06:52:45;33.80;99.90
15131;DHT22;7666;50.920;4.628;2023-07-09T06:55:31;33.80;99.90
15131;DHT22;7666;50.920;4.628;2023-07-09T06:58:17;33.80;99.90
15131;DHT22;7666;50.920;4.628;2023-07-09T07:01:04;33.50;99.90
15131;DHT22;7666;50.920;4.628;2023-07-09T07:03:50;33.30;99.90
15131;DHT22;7666;50.920;4.628;2023-07-09T07:06:36;33.10;99.90
15131;DHT22;7666;50.920;4.628;2023-07-09T07:09:23;33.00;99.90
15131;DHT22;7666;50.920;4.628;2023-07-09T07:12:09;33.00;99.90
15131;DHT22;7666;50.920;4.628;2023-07-09T07:14:56;32.70;99.90
15131;DHT22;7666;50.920;4.628;2023-07-09T07:17:42;32.30;99.90
15131;DHT22;7666;50.920;4.628;2023-07-09T07:20:29;32.20;99.90
15131;DHT22;7666;50.920;4.628;2023-07-09T07:23:15;31.50;99.90
15131;DHT22;7666;50.920;4.628;2023-07-09T07:26:01;31.40;99.90
15131;DHT22;7666;50.920;4.628;2023-07-09T07:28:47;31.30;99.90
15131;DHT22;7666;50.920;4.628;2023-07-09T07:31:33;31.40;99.90
15131;DHT22;7666;50.920;4.628;2023-07-09T07:34:19;31.20;99.90
15131;DHT22;7666;50.920;4.628;2023-07-09T07:37:05;31.20;99.90
15131;DHT22;7666;50.920;4.628;2023-07-09T07:39:51;31.40;99.90
15131;DHT22;7666;50.920;4.628;2023-07-09T07:42:37;31.40;99.90
15131;DHT22;7666;50.920;4.628;2023-07-09T07:45:22;31.40;99.90
15131;DHT22;7666;50.920;4.628;2023-07-09T07:48:09;31.40;99.90
15131;DHT22;7666;50.920;4.628;2023-07-09T07:51:02;31.20;99.90
15131;DHT22;7666;50.920;4.628;2023-07-09T07:53:49;31.20;99.90
15131;DHT22;7666;50.920;4.628;2023-07-09T07:56:35;31.30;99.90
15131;DHT22;7666;50.920;4.628;2023-07-09T07:59:21;31.40;99.90
15131;DHT22;7666;50.920;4.628;2023-07-09T08:02:11;31.50;99.90
15131;DHT22;7666;50.920;4.628;2023-07-09T08:04:57;31.40;99.90
15131;DHT22;7666;50.920;4.628;2023-07-09T08:07:43;31.40;99.90
15131;DHT22;7666;50.920;4.628;2023-07-09T08:10:29;31.30;99.90
15131;DHT22;7666;50.920;4.628;2023-07-09T08:13:15;31.30;99.90
15131;DHT22;7666;50.920;4.628;2023-07-09T08:16:02;31.20;99.90
15131;DHT22;7666;50.920;4.628;2023-07-09T08:18:48;31.20;99.90
15131;DHT22;7666;50.920;4.628;2023-07-09T08:21:34;31.30;99.90
15131;DHT22;7666;50.920;4.628;2023-07-09T08:24:20;31.20;99.90
15131;DHT22;7666;50.920;4.628;2023-07-09T08:27:07;31.30;99.90
15131;DHT22;7666;50.920;4.628;2023-07-09T08:29:53;31.40;99.90
15131;DHT22;7666;50.920;4.628;2023-07-09T08:32:39;31.40;99.90
15131;DHT22;7666;50.920;4.628;2023-07-09T08:35:25;31.60;99.90
15131;DHT22;7666;50.920;4.628;2023-07-09T08:38:11;31.50;99.90
15131;DHT22;7666;50.920;4.628;2023-07-09T08:44:10;31.30;99.90
15131;DHT22;7666;50.920;4.628;2023-07-09T08:47:29;30.70;99.90
15131;DHT22;7666;50.920;4.628;2023-07-09T08:50:23;30.90;99.90
15131;DHT22;7666;50.920;4.628;2023-07-09T08:53:18;31.00;99.90
15131;DHT22;7666;50.920;4.628;2023-07-09T08:56:09;31.30;99.90
15131;DHT22;7666;50.920;4.628;2023-07-09T08:58:58;31.40;99.90
15131;DHT22;7666;50.920;4.628;2023-07-09T09:01:51;31.70;99.90
15131;DHT22;7666;50.920;4.628;2023-07-09T09:04:37;31.90;99.90
15131;DHT22;7666;50.920;4.628;2023-07-09T09:07:44;31.90;99.90
15131;DHT22;7666;50.920;4.628;2023-07-09T09:10:38;31.90;99.90
15131;DHT22;7666;50.920;4.628;2023-07-09T09:13:28;32.00;99.90
15131;DHT22;7666;50.920;4.628;2023-07-09T09:16:28;32.00;99.90
15131;DHT22;7666;50.920;4.628;2023-07-09T09:19:31;31.90;99.90
15131;DHT22;7666;50.920;4.628;2023-07-09T09:22:26;31.80;99.90
15131;DHT22;7666;50.920;4.628;2023-07-09T09:25:24;31.80;99.90
15131;DHT22;7666;50.920;4.628;2023-07-09T09:28:12;32.00;99.90
15131;DHT22;7666;50.920;4.628;2023-07-09T09:30:59;32.00;99.90
15131;DHT22;7666;50.920;4.628;2023-07-09T09:33:48;32.20;99.90
15131;DHT22;7666;50.920;4.628;2023-07-09T09:36:36;32.20;99.90
15131;DHT22;7666;50.920;4.628;2023-07-09T09:39:24;32.30;99.90
15131;DHT22;7666;50.920;4.628;2023-07-09T09:42:11;32.40;99.90
15131;DHT22;7666;50.920;4.628;2023-07-09T09:44:57;32.50;99.90
15131;DHT22;7666;50.920;4.628;2023-07-09T09:47:44;32.50;99.90
15131;DHT22;7666;50.920;4.628;2023-07-09T09:50:32;32.60;99.90
15131;DHT22;7666;50.920;4.628;2023-07-09T09:53:21;32.50;99.90
15131;DHT22;7666;50.920;4.628;2023-07-09T09:56:15;32.50;99.90
15131;DHT22;7666;50.920;4.628;2023-07-09T09:59:04;32.40;99.90
15131;DHT22;7666;50.920;4.628;2023-07-09T10:02:05;32.30;99.90
15131;DHT22;7666;50.920;4.628;2023-07-09T10:04:58;32.40;99.90
15131;DHT22;7666;50.920;4.628;2023-07-09T10:07:55;32.00;99.90
15131;DHT22;7666;50.920;4.628;2023-07-09T10:10:44;32.20;99.90
15131;DHT22;7666;50.920;4.628;2023-07-09T10:13:34;32.30;99.90
15131;DHT22;7666;50.920;4.628;2023-07-09T10:16:51;32.30;99.90
15131;DHT22;7666;50.920;4.628;2023-07-09T10:19:48;32.10;99.90
15131;DHT22;7666;50.920;4.628;2023-07-09T10:22:53;31.90;99.90
15131;DHT22;7666;50.920;4.628;2023-07-09T10:26:30;31.40;99.90
15131;DHT22;7666;50.920;4.628;2023-07-09T10:28:58;31.60;99.90
15131;DHT22;7666;50.920;4.628;2023-07-09T10:32:09;31.70;99.90
15131;DHT22;7666;50.920;4.628;2023-07-09T10:38:22;31.60;99.90
15131;DHT22;7666;50.920;4.628;2023-07-09T10:41:12;31.60;99.90
15131;DHT22;7666;50.920;4.628;2023-07-09T10:44:23;31.50;99.90
15131;DHT22;7666;50.920;4.628;2023-07-09T10:47:16;31.20;99.90
15131;DHT22;7666;50.920;4.628;2023-07-09T10:50:14;30.80;99.90
15131;DHT22;7666;50.920;4.628;2023-07-09T10:53:11;30.80;99.90
15131;DHT22;7666;50.920;4.628;2023-07-09T10:56:09;30.90;99.90
15131;DHT22;7666;50.920;4.628;2023-07-09T11:02:26;30.90;99.90
15131;DHT22;7666;50.920;4.628;2023-07-09T11:05:12;30.70;99.90
15131;DHT22;7666;50.920;4.628;2023-07-09T11:08:17;30.40;99.90
15131;DHT22;7666;50.920;4.628;2023-07-09T11:11:17;29.90;99.90
15131;DHT22;7666;50.920;4.628;2023-07-09T11:14:27;29.80;99.90
15131;DHT22;7666;50.920;4.628;2023-07-09T11:17:19;29.60;99.90
15131;DHT22;7666;50.920;4.628;2023-07-09T11:20:21;29.40;99.90
15131;DHT22;7666;50.920;4.628;2023-07-09T11:23:22;29.40;99.90
15131;DHT22;7666;50.920;4.628;2023-07-09T11:26:26;29.40;99.90
15131;DHT22;7666;50.920;4.628;2023-07-09T11:29:17;29.40;99.90
15131;DHT22;7666;50.920;4.628;2023-07-09T11:32:08;29.00;99.90
15131;DHT22;7666;50.920;4.628;2023-07-09T11:35:06;28.50;99.90
15131;DHT22;7666;50.920;4.628;2023-07-09T11:37:53;28.10;99.90
15131;DHT22;7666;50.920;4.628;2023-07-09T11:40:49;28.00;99.90
15131;DHT22;7666;50.920;4.628;2023-07-09T11:43:47;27.90;99.90
15131;DHT22;7666;50.920;4.628;2023-07-09T11:46:35;27.70;99.90
15131;DHT22;7666;50.920;4.628;2023-07-09T11:49:26;27.50;99.90
15131;DHT22;7666;50.920;4.628;2023-07-09T11:52:13;27.40;99.90
15131;DHT22;7666;50.920;4.628;2023-07-09T11:58:14;26.90;99.90
15131;DHT22;7666;50.920;4.628;2023-07-09T12:01:01;26.70;99.90
15131;DHT22;7666;50.920;4.628;2023-07-09T12:03:48;26.70;99.90
15131;DHT22;7666;50.920;4.628;2023-07-09T12:06:38;26.60;99.90
15131;DHT22;7666;50.920;4.628;2023-07-09T12:09:32;26.60;99.90
15131;DHT22;7666;50.920;4.628;2023-07-09T12:12:23;26.50;99.90
15131;DHT22;7666;50.920;4.628;2023-07-09T12:15:29;26.50;99.90
15131;DHT22;7666;50.920;4.628;2023-07-09T12:18:17;26.50;99.90
15131;DHT22;7666;50.920;4.628;2023-07-09T12:21:08;26.50;99.90
15131;DHT22;7666;50.920;4.628;2023-07-09T12:23:55;26.50;99.90
15131;DHT22;7666;50.920;4.628;2023-07-09T12:26:48;26.50;99.90
15131;DHT22;7666;50.920;4.628;2023-07-09T12:29:37;26.50;99.90
15131;DHT22;7666;50.920;4.628;2023-07-09T12:32:23;26.40;99.90
15131;DHT22;7666;50.920;4.628;2023-07-09T12:35:13;26.40;99.90
15131;DHT22;7666;50.920;4.628;2023-07-09T12:38:00;26.30;99.90
15131;DHT22;7666;50.920;4.628;2023-07-09T12:40:48;26.20;99.90
15131;DHT22;7666;50.920;4.628;2023-07-09T12:43:34;26.10;99.90
15131;DHT22;7666;50.920;4.628;2023-07-09T12:46:21;26.00;99.90
15131;DHT22;7666;50.920;4.628;2023-07-09T12:49:08;25.90;99.90
15131;DHT22;7666;50.920;4.628;2023-07-09T12:52:27;25.70;99.90
15131;DHT22;7666;50.920;4.628;2023-07-09T12:55:22;25.60;99.90
15131;DHT22;7666;50.920;4.628;2023-07-09T12:58:13;25.40;99.90
15131;DHT22;7666;50.920;4.628;2023-07-09T13:01:05;25.00;99.90
15131;DHT22;7666;50.920;4.628;2023-07-09T13:03:55;24.80;99.90
15131;DHT22;7666;50.920;4.628;2023-07-09T13:06:42;24.60;99.90
15131;DHT22;7666;50.920;4.628;2023-07-09T13:09:30;24.50;99.90
15131;DHT22;7666;50.920;4.628;2023-07-09T13:12:16;24.40;99.90
15131;DHT22;7666;50.920;4.628;2023-07-09T13:15:02;24.40;99.90
15131;DHT22;7666;50.920;4.628;2023-07-09T13:17:48;24.30;99.90
15131;DHT22;7666;50.920;4.628;2023-07-09T13:20:38;24.20;99.90
15131;DHT22;7666;50.920;4.628;2023-07-09T13:23:29;24.20;99.90
15131;DHT22;7666;50.920;4.628;2023-07-09T13:26:18;24.10;99.90
15131;DHT22;7666;50.920;4.628;2023-07-09T13:29:12;24.30;99.90
15131;DHT22;7666;50.920;4.628;2023-07-09T13:31:58;24.40;99.90
15131;DHT22;7666;50.920;4.628;2023-07-09T13:34:44;24.50;99.90
15131;DHT22;7666;50.920;4.628;2023-07-09T13:37:30;24.50;99.90
15131;DHT22;7666;50.920;4.628;2023-07-09T13:40:16;24.70;99.90
15131;DHT22;7666;50.920;4.628;2023-07-09T13:43:04;24.90;99.90
15131;DHT22;7666;50.920;4.628;2023-07-09T13:45:50;25.10;99.90
15131;DHT22;7666;50.920;4.628;2023-07-09T13:48:37;25.20;99.90
15131;DHT22;7666;50.920;4.628;2023-07-09T13:51:23;25.10;99.90
15131;DHT22;7666;50.920;4.628;2023-07-09T13:54:23;25.20;99.90
15131;DHT22;7666;50.920;4.628;2023-07-09T13:57:14;25.20;99.90
15131;DHT22;7666;50.920;4.628;2023-07-09T14:00:00;25.20;99.90
15131;DHT22;7666;50.920;4.628;2023-07-09T14:02:46;25.40;99.90
15131;DHT22;7666;50.920;4.628;2023-07-09T14:05:32;25.60;99.90
15131;DHT22;7666;50.920;4.628;2023-07-09T14:08:20;25.80;99.90
15131;DHT22;7666;50.920;4.628;2023-07-09T14:11:15;25.80;99.90
15131;DHT22;7666;50.920;4.628;2023-07-09T14:14:10;25.80;99.90
15131;DHT22;7666;50.920;4.628;2023-07-09T14:16:59;25.80;99.90
15131;DHT22;7666;50.920;4.628;2023-07-09T14:19:45;25.80;99.90
15131;DHT22;7666;50.920;4.628;2023-07-09T14:22:36;25.70;99.90
15131;DHT22;7666;50.920;4.628;2023-07-09T14:25:25;25.40;99.90
15131;DHT22;7666;50.920;4.628;2023-07-09T14:28:19;25.20;99.90
15131;DHT22;7666;50.920;4.628;2023-07-09T14:31:24;25.40;99.90
15131;DHT22;7666;50.920;4.628;2023-07-09T14:34:31;25.50;99.90
15131;DHT22;7666;50.920;4.628;2023-07-09T14:37:18;25.60;99.90
15131;DHT22;7666;50.920;4.628;2023-07-09T14:40:04;25.80;99.90
15131;DHT22;7666;50.920;4.628;2023-07-09T14:42:50;26.10;99.90
15131;DHT22;7666;50.920;4.628;2023-07-09T14:45:37;26.50;99.90
15131;DHT22;7666;50.920;4.628;2023-07-09T14:48:23;26.80;99.90
15131;DHT22;7666;50.920;4.628;2023-07-09T14:51:14;27.00;99.90
15131;DHT22;7666;50.920;4.628;2023-07-09T14:54:01;27.10;99.90
15131;DHT22;7666;50.920;4.628;2023-07-09T14:56:48;26.90;99.90
15131;DHT22;7666;50.920;4.628;2023-07-09T14:59:34;26.70;99.90
15131;DHT22;7666;50.920;4.628;2023-07-09T15:02:21;26.80;99.90
15131;DHT22;7666;50.920;4.628;2023-07-09T15:05:20;26.70;99.90
15131;DHT22;7666;50.920;4.628;2023-07-09T15:08:14;26.50;99.90
15131;DHT22;7666;50.920;4.628;2023-07-09T15:11:00;26.40;99.90
15131;DHT22;7666;50.920;4.628;2023-07-09T15:13:46;26.40;99.90
15131;DHT22;7666;50.920;4.628;2023-07-09T15:16:32;26.30;99.90
15131;DHT22;7666;50.920;4.628;2023-07-09T15:19:21;26.20;99.90
15131;DHT22;7666;50.920;4.628;2023-07-09T15:22:28;26.20;99.90
15131;DHT22;7666;50.920;4.628;2023-07-09T15:25:26;26.40;99.90
15131;DHT22;7666;50.920;4.628;2023-07-09T15:28:12;26.40;99.90
15131;DHT22;7666;50.920;4.628;2023-07-09T15:30:58;26.50;99.90
15131;DHT22;7666;50.920;4.628;2023-07-09T15:33:44;26.70;99.90
15131;DHT22;7666;50.920;4.628;2023-07-09T15:36:30;27.00;99.90
15131;DHT22;7666;50.920;4.628;2023-07-09T15:39:17;27.10;99.90
15131;DHT22;7666;50.920;4.628;2023-07-09T15:42:11;26.90;99.90
15131;DHT22;7666;50.920;4.628;2023-07-09T15:44:57;26.60;99.90
15131;DHT22;7666;50.920;4.628;2023-07-09T15:47:47;26.60;99.90
15131;DHT22;7666;50.920;4.628;2023-07-09T15:50:35;26.90;99.90
15131;DHT22;7666;50.920;4.628;2023-07-09T15:53:22;27.00;99.90
15131;DHT22;7666;50.920;4.628;2023-07-09T15:56:22;27.00;99.90
15131;DHT22;7666;50.920;4.628;2023-07-09T16:02:13;27.10;99.90
15131;DHT22;7666;50.920;4.628;2023-07-09T16:05:00;27.30;99.90
15131;DHT22;7666;50.920;4.628;2023-07-09T16:07:46;27.40;99.90
15131;DHT22;7666;50.920;4.628;2023-07-09T16:10:33;27.00;99.90
15131;DHT22;7666;50.920;4.628;2023-07-09T16:13:21;26.60;99.90
15131;DHT22;7666;50.920;4.628;2023-07-09T16:16:19;26.40;99.90
15131;DHT22;7666;50.920;4.628;2023-07-09T16:19:06;26.30;99.90
15131;DHT22;7666;50.920;4.628;2023-07-09T16:22:01;26.30;99.90
15131;DHT22;7666;50.920;4.628;2023-07-09T16:24:48;26.20;99.90
15131;DHT22;7666;50.920;4.628;2023-07-09T16:27:34;26.40;99.90
15131;DHT22;7666;50.920;4.628;2023-07-09T16:30:25;26.40;99.90
15131;DHT22;7666;50.920;4.628;2023-07-09T16:33:11;26.30;99.90
15131;DHT22;7666;50.920;4.628;2023-07-09T16:35:57;26.40;99.90
15131;DHT22;7666;50.920;4.628;2023-07-09T16:38:45;26.50;99.90
15131;DHT22;7666;50.920;4.628;2023-07-09T16:41:31;26.20;99.90
15131;DHT22;7666;50.920;4.628;2023-07-09T16:44:17;26.20;99.90
15131;DHT22;7666;50.920;4.628;2023-07-09T16:47:18;26.10;99.90
15131;DHT22;7666;50.920;4.628;2023-07-09T16:50:05;26.30;99.90
15131;DHT22;7666;50.920;4.628;2023-07-09T16:52:53;26.20;99.90
15131;DHT22;7666;50.920;4.628;2023-07-09T16:55:40;26.00;99.90
15131;DHT22;7666;50.920;4.628;2023-07-09T16:58:33;25.90;99.90
15131;DHT22;7666;50.920;4.628;2023-07-09T17:01:19;25.90;99.90
15131;DHT22;7666;50.920;4.628;2023-07-09T17:04:25;25.80;99.90
15131;DHT22;7666;50.920;4.628;2023-07-09T17:07:16;25.60;99.90
15131;DHT22;7666;50.920;4.628;2023-07-09T17:10:02;25.40;99.90
15131;DHT22;7666;50.920;4.628;2023-07-09T17:12:55;25.00;99.90
15131;DHT22;7666;50.920;4.628;2023-07-09T17:15:42;24.60;99.90
15131;DHT22;7666;50.920;4.628;2023-07-09T17:18:30;24.40;99.90
15131;DHT22;7666;50.920;4.628;2023-07-09T17:21:17;24.30;99.90
15131;DHT22;7666;50.920;4.628;2023-07-09T17:24:23;24.30;99.90
15131;DHT22;7666;50.920;4.628;2023-07-09T17:27:10;24.20;99.90
15131;DHT22;7666;50.920;4.628;2023-07-09T17:29:56;24.20;99.90
15131;DHT22;7666;50.920;4.628;2023-07-09T17:32:42;24.10;99.90
15131;DHT22;7666;50.920;4.628;2023-07-09T17:35:28;24.10;99.90
15131;DHT22;7666;50.920;4.628;2023-07-09T17:38:23;23.90;99.90
15131;DHT22;7666;50.920;4.628;2023-07-09T17:41:10;23.80;99.90
15131;DHT22;7666;50.920;4.628;2023-07-09T17:43:56;23.70;99.90
15131;DHT22;7666;50.920;4.628;2023-07-09T17:46:43;23.50;99.90
15131;DHT22;7666;50.920;4.628;2023-07-09T17:49:32;23.30;99.90
15131;DHT22;7666;50.920;4.628;2023-07-09T17:52:19;23.30;99.90
15131;DHT22;7666;50.920;4.628;2023-07-09T17:55:06;23.20;99.90
15131;DHT22;7666;50.920;4.628;2023-07-09T17:57:53;23.20;99.90
15131;DHT22;7666;50.920;4.628;2023-07-09T18:00:41;23.10;99.90
15131;DHT22;7666;50.920;4.628;2023-07-09T18:03:27;23.10;99.90
15131;DHT22;7666;50.920;4.628;2023-07-09T18:06:15;23.10;99.90
15131;DHT22;7666;50.920;4.628;2023-07-09T18:09:01;23.00;99.90
15131;DHT22;7666;50.920;4.628;2023-07-09T18:11:52;23.00;99.90
15131;DHT22;7666;50.920;4.628;2023-07-09T18:14:43;23.00;99.90
15131;DHT22;7666;50.920;4.628;2023-07-09T18:17:32;22.90;99.90
15131;DHT22;7666;50.920;4.628;2023-07-09T18:20:21;22.80;99.90
15131;DHT22;7666;50.920;4.628;2023-07-09T18:23:08;22.80;99.90